sensor_id;sensor_type;location;lat;lon;timestamp;temperature;humidity
12839;DHT22;6486;51.034;5.262;2023-04-24T00:00:06;11.50;75.90
12839;DHT22;6486;51.034;5.262;2023-04-24T00:02:35;11.40;75.80
12839;DHT22;6486;51.034;5.262;2023-04-24T00:05:04;11.40;75.60
12839;DHT22;6486;51.034;5.262;2023-04-24T00:07:31;11.40;75.80
12839;DHT22;6486;51.034;5.262;2023-04-24T00:09:56;11.30;75.80
12839;DHT22;6486;51.034;5.262;2023-04-24T00:12:22;11.30;76.00
12839;DHT22;6486;51.034;5.262;2023-04-24T00:14:48;11.30;76.10
12839;DHT22;6486;51.034;5.262;2023-04-24T00:17:13;11.20;76.00
12839;DHT22;6486;51.034;5.262;2023-04-24T00:19:39;11.30;76.20
12839;DHT22;6486;51.034;5.262;2023-04-24T00:22:04;11.20;76.10
12839;DHT22;6486;51.034;5.262;2023-04-24T00:24:30;11.20;76.10
12839;DHT22;6486;51.034;5.262;2023-04-24T00:26:56;11.30;76.20
12839;DHT22;6486;51.034;5.262;2023-04-24T00:29:22;11.30;76.20
12839;DHT22;6486;51.034;5.262;2023-04-24T00:31:48;11.30;76.10
12839;DHT22;6486;51.034;5.262;2023-04-24T00:34:13;11.30;76.80
12839;DHT22;6486;51.034;5.262;2023-04-24T00:36:39;11.30;76.10
12839;DHT22;6486;51.034;5.262;2023-04-24T00:39:05;11.30;76.10
12839;DHT22;6486;51.034;5.262;2023-04-24T00:41:34;11.30;76.10
12839;DHT22;6486;51.034;5.262;2023-04-24T00:44:00;11.30;76.10
12839;DHT22;6486;51.034;5.262;2023-04-24T00:46:26;11.30;76.10
12839;DHT22;6486;51.034;5.262;2023-04-24T00:48:52;11.30;75.90
12839;DHT22;6486;51.034;5.262;2023-04-24T00:51:18;11.30;76.00
12839;DHT22;6486;51.034;5.262;2023-04-24T00:53:43;11.30;76.10
12839;DHT22;6486;51.034;5.262;2023-04-24T00:56:09;11.30;76.10
12839;DHT22;6486;51.034;5.262;2023-04-24T00:58:35;11.30;76.20
12839;DHT22;6486;51.034;5.262;2023-04-24T01:01:02;11.20;76.10
12839;DHT22;6486;51.034;5.262;2023-04-24T01:03:30;11.20;76.20
12839;DHT22;6486;51.034;5.262;2023-04-24T01:05:57;11.20;76.30
12839;DHT22;6486;51.034;5.262;2023-04-24T01:08:24;11.20;76.30
12839;DHT22;6486;51.034;5.262;2023-04-24T01:10:52;11.20;76.30
12839;DHT22;6486;51.034;5.262;2023-04-24T01:13:18;11.20;76.30
12839;DHT22;6486;51.034;5.262;2023-04-24T01:15:45;11.20;76.40
12839;DHT22;6486;51.034;5.262;2023-04-24T01:18:11;11.20;76.30
12839;DHT22;6486;51.034;5.262;2023-04-24T01:20:38;11.20;76.30
12839;DHT22;6486;51.034;5.262;2023-04-24T01:23:06;11.30;76.30
12839;DHT22;6486;51.034;5.262;2023-04-24T01:25:31;11.30;76.30
12839;DHT22;6486;51.034;5.262;2023-04-24T01:27:58;11.30;76.20
12839;DHT22;6486;51.034;5.262;2023-04-24T01:30:24;11.20;76.10
12839;DHT22;6486;51.034;5.262;2023-04-24T01:32:50;11.30;76.20
12839;DHT22;6486;51.034;5.262;2023-04-24T01:35:17;11.30;76.20
12839;DHT22;6486;51.034;5.262;2023-04-24T01:37:42;11.20;76.00
12839;DHT22;6486;51.034;5.262;2023-04-24T01:40:09;11.30;76.20
12839;DHT22;6486;51.034;5.262;2023-04-24T01:42:35;11.30;76.10
12839;DHT22;6486;51.034;5.262;2023-04-24T01:45:02;11.30;76.00
12839;DHT22;6486;51.034;5.262;2023-04-24T01:47:30;11.30;76.00
12839;DHT22;6486;51.034;5.262;2023-04-24T01:49:56;11.30;76.10
12839;DHT22;6486;51.034;5.262;2023-04-24T01:52:22;11.30;76.10
12839;DHT22;6486;51.034;5.262;2023-04-24T01:54:47;11.20;76.10
12839;DHT22;6486;51.034;5.262;2023-04-24T01:57:14;11.20;76.10
12839;DHT22;6486;51.034;5.262;2023-04-24T01:59:40;11.30;76.30
12839;DHT22;6486;51.034;5.262;2023-04-24T02:02:06;11.30;76.30
12839;DHT22;6486;51.034;5.262;2023-04-24T02:04:32;11.20;76.30
12839;DHT22;6486;51.034;5.262;2023-04-24T02:06:57;11.20;76.30
12839;DHT22;6486;51.034;5.262;2023-04-24T02:09:23;11.30;76.40
12839;DHT22;6486;51.034;5.262;2023-04-24T02:11:49;11.20;76.30
12839;DHT22;6486;51.034;5.262;2023-04-24T02:14:14;11.20;76.40
12839;DHT22;6486;51.034;5.262;2023-04-24T02:16:40;11.20;76.40
12839;DHT22;6486;51.034;5.262;2023-04-24T02:19:06;11.10;76.30
12839;DHT22;6486;51.034;5.262;2023-04-24T02:21:31;11.10;76.40
12839;DHT22;6486;51.034;5.262;2023-04-24T02:23:58;11.10;76.50
12839;DHT22;6486;51.034;5.262;2023-04-24T02:26:23;11.10;76.60
12839;DHT22;6486;51.034;5.262;2023-04-24T02:28:49;11.10;76.50
12839;DHT22;6486;51.034;5.262;2023-04-24T02:31:15;11.10;76.60
12839;DHT22;6486;51.034;5.262;2023-04-24T02:33:41;11.00;76.60
12839;DHT22;6486;51.034;5.262;2023-04-24T02:36:06;11.00;76.60
12839;DHT22;6486;51.034;5.262;2023-04-24T02:38:32;11.00;76.60
12839;DHT22;6486;51.034;5.262;2023-04-24T02:40:58;11.00;76.80
12839;DHT22;6486;51.034;5.262;2023-04-24T02:43:23;10.90;76.70
12839;DHT22;6486;51.034;5.262;2023-04-24T02:45:49;10.90;76.70
12839;DHT22;6486;51.034;5.262;2023-04-24T02:48:15;10.90;76.80
12839;DHT22;6486;51.034;5.262;2023-04-24T02:50:40;11.00;76.80
12839;DHT22;6486;51.034;5.262;2023-04-24T02:53:06;11.00;76.60
12839;DHT22;6486;51.034;5.262;2023-04-24T02:55:32;10.90;76.40
12839;DHT22;6486;51.034;5.262;2023-04-24T02:57:58;10.90;76.50
12839;DHT22;6486;51.034;5.262;2023-04-24T03:00:23;10.80;76.80
12839;DHT22;6486;51.034;5.262;2023-04-24T03:02:49;10.70;76.70
12839;DHT22;6486;51.034;5.262;2023-04-24T03:05:15;10.70;76.90
12839;DHT22;6486;51.034;5.262;2023-04-24T03:07:41;10.70;77.20
12839;DHT22;6486;51.034;5.262;2023-04-24T03:10:07;10.60;77.30
12839;DHT22;6486;51.034;5.262;2023-04-24T03:12:33;10.50;77.50
12839;DHT22;6486;51.034;5.262;2023-04-24T03:14:58;10.50;77.80
12839;DHT22;6486;51.034;5.262;2023-04-24T03:17:24;10.40;77.80
12839;DHT22;6486;51.034;5.262;2023-04-24T03:19:50;10.40;78.20
12839;DHT22;6486;51.034;5.262;2023-04-24T03:22:16;10.40;78.30
12839;DHT22;6486;51.034;5.262;2023-04-24T03:24:41;10.40;78.40
12839;DHT22;6486;51.034;5.262;2023-04-24T03:27:07;10.40;79.10
12839;DHT22;6486;51.034;5.262;2023-04-24T03:29:33;10.40;78.50
12839;DHT22;6486;51.034;5.262;2023-04-24T03:31:58;10.40;78.50
12839;DHT22;6486;51.034;5.262;2023-04-24T03:34:24;10.50;78.60
12839;DHT22;6486;51.034;5.262;2023-04-24T03:36:50;10.50;78.70
12839;DHT22;6486;51.034;5.262;2023-04-24T03:39:16;10.40;78.70
12839;DHT22;6486;51.034;5.262;2023-04-24T03:41:41;10.50;78.80
12839;DHT22;6486;51.034;5.262;2023-04-24T03:44:07;10.50;78.80
12839;DHT22;6486;51.034;5.262;2023-04-24T03:46:33;10.40;78.80
12839;DHT22;6486;51.034;5.262;2023-04-24T03:48:58;10.40;79.00
12839;DHT22;6486;51.034;5.262;2023-04-24T03:51:24;10.40;79.10
12839;DHT22;6486;51.034;5.262;2023-04-24T03:53:50;10.30;79.20
12839;DHT22;6486;51.034;5.262;2023-04-24T03:56:16;10.30;79.40
12839;DHT22;6486;51.034;5.262;2023-04-24T03:58:42;10.30;79.60
12839;DHT22;6486;51.034;5.262;2023-04-24T04:01:08;10.30;79.60
12839;DHT22;6486;51.034;5.262;2023-04-24T04:03:34;10.30;79.70
12839;DHT22;6486;51.034;5.262;2023-04-24T04:05:59;10.30;79.80
12839;DHT22;6486;51.034;5.262;2023-04-24T04:08:25;10.30;79.90
12839;DHT22;6486;51.034;5.262;2023-04-24T04:10:51;10.30;80.00
12839;DHT22;6486;51.034;5.262;2023-04-24T04:13:16;10.30;80.10
12839;DHT22;6486;51.034;5.262;2023-04-24T04:15:42;10.30;80.10
12839;DHT22;6486;51.034;5.262;2023-04-24T04:18:08;10.30;80.10
12839;DHT22;6486;51.034;5.262;2023-04-24T04:20:34;10.30;80.40
12839;DHT22;6486;51.034;5.262;2023-04-24T04:23:00;10.30;80.50
12839;DHT22;6486;51.034;5.262;2023-04-24T04:25:25;10.30;80.70
12839;DHT22;6486;51.034;5.262;2023-04-24T04:27:51;10.20;80.60
12839;DHT22;6486;51.034;5.262;2023-04-24T04:30:18;10.20;80.90
12839;DHT22;6486;51.034;5.262;2023-04-24T04:32:44;10.20;81.00
12839;DHT22;6486;51.034;5.262;2023-04-24T04:35:09;10.20;81.10
12839;DHT22;6486;51.034;5.262;2023-04-24T04:37:35;10.10;81.20
12839;DHT22;6486;51.034;5.262;2023-04-24T04:40:02;10.10;81.30
12839;DHT22;6486;51.034;5.262;2023-04-24T04:42:32;10.10;81.40
12839;DHT22;6486;51.034;5.262;2023-04-24T04:44:59;10.10;81.40
12839;DHT22;6486;51.034;5.262;2023-04-24T04:47:25;10.10;81.60
12839;DHT22;6486;51.034;5.262;2023-04-24T04:49:52;10.00;81.70
12839;DHT22;6486;51.034;5.262;2023-04-24T04:52:18;10.00;81.90
12839;DHT22;6486;51.034;5.262;2023-04-24T04:54:44;10.00;81.90
12839;DHT22;6486;51.034;5.262;2023-04-24T04:57:10;10.00;81.90
12839;DHT22;6486;51.034;5.262;2023-04-24T04:59:36;10.10;81.90
12839;DHT22;6486;51.034;5.262;2023-04-24T05:02:02;10.10;81.80
12839;DHT22;6486;51.034;5.262;2023-04-24T05:04:28;10.10;81.80
12839;DHT22;6486;51.034;5.262;2023-04-24T05:06:53;10.10;81.90
12839;DHT22;6486;51.034;5.262;2023-04-24T05:09:19;10.10;81.90
12839;DHT22;6486;51.034;5.262;2023-04-24T05:11:45;10.10;82.00
12839;DHT22;6486;51.034;5.262;2023-04-24T05:14:10;10.10;82.10
12839;DHT22;6486;51.034;5.262;2023-04-24T05:16:38;10.10;82.10
12839;DHT22;6486;51.034;5.262;2023-04-24T05:19:05;10.10;82.20
12839;DHT22;6486;51.034;5.262;2023-04-24T05:21:31;10.10;82.20
12839;DHT22;6486;51.034;5.262;2023-04-24T05:23:56;10.10;82.20
12839;DHT22;6486;51.034;5.262;2023-04-24T05:26:22;10.10;82.20
12839;DHT22;6486;51.034;5.262;2023-04-24T05:28:48;10.10;82.30
12839;DHT22;6486;51.034;5.262;2023-04-24T05:31:14;10.00;82.20
12839;DHT22;6486;51.034;5.262;2023-04-24T05:33:39;10.00;82.40
12839;DHT22;6486;51.034;5.262;2023-04-24T05:36:06;10.00;82.50
12839;DHT22;6486;51.034;5.262;2023-04-24T05:38:32;10.00;82.50
12839;DHT22;6486;51.034;5.262;2023-04-24T05:40:58;10.00;82.50
12839;DHT22;6486;51.034;5.262;2023-04-24T05:43:23;10.00;82.60
12839;DHT22;6486;51.034;5.262;2023-04-24T05:45:49;9.90;83.70
12839;DHT22;6486;51.034;5.262;2023-04-24T05:48:15;9.90;83.70
12839;DHT22;6486;51.034;5.262;2023-04-24T05:50:41;9.90;83.60
12839;DHT22;6486;51.034;5.262;2023-04-24T05:53:06;10.00;82.60
12839;DHT22;6486;51.034;5.262;2023-04-24T05:55:32;10.00;82.70
12839;DHT22;6486;51.034;5.262;2023-04-24T05:57:58;10.00;82.60
12839;DHT22;6486;51.034;5.262;2023-04-24T06:00:24;9.90;83.60
12839;DHT22;6486;51.034;5.262;2023-04-24T06:02:50;9.90;83.60
12839;DHT22;6486;51.034;5.262;2023-04-24T06:05:17;9.90;83.80
12839;DHT22;6486;51.034;5.262;2023-04-24T06:07:43;9.80;83.70
12839;DHT22;6486;51.034;5.262;2023-04-24T06:10:09;9.80;83.70
12839;DHT22;6486;51.034;5.262;2023-04-24T06:12:35;9.80;83.80
12839;DHT22;6486;51.034;5.262;2023-04-24T06:15:00;9.80;83.80
12839;DHT22;6486;51.034;5.262;2023-04-24T06:17:26;9.80;83.80
12839;DHT22;6486;51.034;5.262;2023-04-24T06:19:52;9.80;83.90
12839;DHT22;6486;51.034;5.262;2023-04-24T06:22:17;9.80;83.90
12839;DHT22;6486;51.034;5.262;2023-04-24T06:24:43;9.80;84.00
12839;DHT22;6486;51.034;5.262;2023-04-24T06:27:09;9.80;84.00
12839;DHT22;6486;51.034;5.262;2023-04-24T06:29:36;9.80;84.00
12839;DHT22;6486;51.034;5.262;2023-04-24T06:32:01;9.70;83.90
12839;DHT22;6486;51.034;5.262;2023-04-24T06:34:27;9.70;83.80
12839;DHT22;6486;51.034;5.262;2023-04-24T06:36:53;9.70;83.80
12839;DHT22;6486;51.034;5.262;2023-04-24T06:39:19;9.70;83.80
12839;DHT22;6486;51.034;5.262;2023-04-24T06:41:45;9.70;83.90
12839;DHT22;6486;51.034;5.262;2023-04-24T06:44:10;9.70;83.90
12839;DHT22;6486;51.034;5.262;2023-04-24T06:46:36;9.70;83.90
12839;DHT22;6486;51.034;5.262;2023-04-24T06:49:02;9.70;83.90
12839;DHT22;6486;51.034;5.262;2023-04-24T06:51:27;9.70;83.80
12839;DHT22;6486;51.034;5.262;2023-04-24T06:53:53;9.70;83.80
12839;DHT22;6486;51.034;5.262;2023-04-24T06:56:19;9.70;83.80
12839;DHT22;6486;51.034;5.262;2023-04-24T06:58:46;9.70;83.80
12839;DHT22;6486;51.034;5.262;2023-04-24T07:01:11;9.70;83.80
12839;DHT22;6486;51.034;5.262;2023-04-24T07:03:37;9.70;83.70
12839;DHT22;6486;51.034;5.262;2023-04-24T07:06:04;9.80;83.70
12839;DHT22;6486;51.034;5.262;2023-04-24T07:08:30;9.80;83.70
12839;DHT22;6486;51.034;5.262;2023-04-24T07:10:57;9.80;83.60
12839;DHT22;6486;51.034;5.262;2023-04-24T07:13:23;9.90;83.60
12839;DHT22;6486;51.034;5.262;2023-04-24T07:15:49;9.90;83.50
12839;DHT22;6486;51.034;5.262;2023-04-24T07:18:16;9.90;83.50
12839;DHT22;6486;51.034;5.262;2023-04-24T07:20:42;9.90;83.50
12839;DHT22;6486;51.034;5.262;2023-04-24T07:23:08;9.90;83.50
12839;DHT22;6486;51.034;5.262;2023-04-24T07:25:33;9.90;83.50
12839;DHT22;6486;51.034;5.262;2023-04-24T07:27:59;9.90;83.60
12839;DHT22;6486;51.034;5.262;2023-04-24T07:30:25;9.90;83.60
12839;DHT22;6486;51.034;5.262;2023-04-24T07:32:51;10.00;82.60
12839;DHT22;6486;51.034;5.262;2023-04-24T07:35:17;10.00;82.60
12839;DHT22;6486;51.034;5.262;2023-04-24T07:37:42;10.00;82.50
12839;DHT22;6486;51.034;5.262;2023-04-24T07:40:14;10.00;82.40
12839;DHT22;6486;51.034;5.262;2023-04-24T07:42:40;10.00;83.00
12839;DHT22;6486;51.034;5.262;2023-04-24T07:45:07;10.00;82.40
12839;DHT22;6486;51.034;5.262;2023-04-24T07:47:33;10.00;82.50
12839;DHT22;6486;51.034;5.262;2023-04-24T07:49:59;10.00;82.60
12839;DHT22;6486;51.034;5.262;2023-04-24T07:52:25;9.90;83.50
12839;DHT22;6486;51.034;5.262;2023-04-24T07:54:50;9.90;83.60
12839;DHT22;6486;51.034;5.262;2023-04-24T07:57:18;9.80;83.60
12839;DHT22;6486;51.034;5.262;2023-04-24T07:59:44;9.80;83.60
12839;DHT22;6486;51.034;5.262;2023-04-24T08:02:09;9.80;83.60
12839;DHT22;6486;51.034;5.262;2023-04-24T08:04:35;9.80;83.60
12839;DHT22;6486;51.034;5.262;2023-04-24T08:07:01;9.90;83.60
12839;DHT22;6486;51.034;5.262;2023-04-24T08:09:27;9.90;83.60
12839;DHT22;6486;51.034;5.262;2023-04-24T08:11:53;9.90;83.60
12839;DHT22;6486;51.034;5.262;2023-04-24T08:14:19;10.00;82.90
12839;DHT22;6486;51.034;5.262;2023-04-24T08:16:44;10.00;82.90
12839;DHT22;6486;51.034;5.262;2023-04-24T08:19:10;10.10;83.20
12839;DHT22;6486;51.034;5.262;2023-04-24T08:21:36;10.10;83.30
12839;DHT22;6486;51.034;5.262;2023-04-24T08:24:01;10.20;83.60
12839;DHT22;6486;51.034;5.262;2023-04-24T08:26:30;10.20;83.60
12839;DHT22;6486;51.034;5.262;2023-04-24T08:28:56;10.40;83.80
12839;DHT22;6486;51.034;5.262;2023-04-24T08:31:22;10.50;83.60
12839;DHT22;6486;51.034;5.262;2023-04-24T08:33:50;10.60;83.60
12839;DHT22;6486;51.034;5.262;2023-04-24T08:36:15;10.70;83.60
12839;DHT22;6486;51.034;5.262;2023-04-24T08:38:42;10.80;83.50
12839;DHT22;6486;51.034;5.262;2023-04-24T08:41:08;10.90;83.50
12839;DHT22;6486;51.034;5.262;2023-04-24T08:43:35;11.00;83.50
12839;DHT22;6486;51.034;5.262;2023-04-24T08:46:04;11.10;83.50
12839;DHT22;6486;51.034;5.262;2023-04-24T08:48:30;11.20;83.40
12839;DHT22;6486;51.034;5.262;2023-04-24T08:50:57;11.30;83.30
12839;DHT22;6486;51.034;5.262;2023-04-24T08:53:24;11.40;82.90
12839;DHT22;6486;51.034;5.262;2023-04-24T08:55:50;11.40;82.80
12839;DHT22;6486;51.034;5.262;2023-04-24T08:58:17;11.40;82.70
12839;DHT22;6486;51.034;5.262;2023-04-24T09:00:43;11.40;82.70
12839;DHT22;6486;51.034;5.262;2023-04-24T09:03:14;11.50;82.90
12839;DHT22;6486;51.034;5.262;2023-04-24T09:05:46;11.50;82.60
12839;DHT22;6486;51.034;5.262;2023-04-24T09:08:13;11.50;82.30
12839;DHT22;6486;51.034;5.262;2023-04-24T09:10:40;11.50;82.30
12839;DHT22;6486;51.034;5.262;2023-04-24T09:13:06;11.60;82.30
12839;DHT22;6486;51.034;5.262;2023-04-24T09:15:34;11.60;82.10
12839;DHT22;6486;51.034;5.262;2023-04-24T09:18:01;11.60;82.10
12839;DHT22;6486;51.034;5.262;2023-04-24T09:20:26;11.60;81.90
12839;DHT22;6486;51.034;5.262;2023-04-24T09:22:56;11.60;81.80
12839;DHT22;6486;51.034;5.262;2023-04-24T09:25:23;11.50;81.80
12839;DHT22;6486;51.034;5.262;2023-04-24T09:27:53;11.40;81.80
12839;DHT22;6486;51.034;5.262;2023-04-24T09:30:23;11.40;81.90
12839;DHT22;6486;51.034;5.262;2023-04-24T09:32:48;11.40;81.80
12839;DHT22;6486;51.034;5.262;2023-04-24T09:35:15;11.40;81.60
12839;DHT22;6486;51.034;5.262;2023-04-24T09:37:42;11.40;81.50
12839;DHT22;6486;51.034;5.262;2023-04-24T09:40:19;11.50;81.50
12839;DHT22;6486;51.034;5.262;2023-04-24T09:42:52;11.40;81.40
12839;DHT22;6486;51.034;5.262;2023-04-24T09:45:18;11.40;81.30
12839;DHT22;6486;51.034;5.262;2023-04-24T09:47:44;11.40;81.30
12839;DHT22;6486;51.034;5.262;2023-04-24T09:50:11;11.50;81.40
12839;DHT22;6486;51.034;5.262;2023-04-24T09:52:47;11.60;82.10
12839;DHT22;6486;51.034;5.262;2023-04-24T09:55:19;11.70;81.40
12839;DHT22;6486;51.034;5.262;2023-04-24T09:57:59;12.00;81.50
12839;DHT22;6486;51.034;5.262;2023-04-24T10:00:31;12.20;81.20
12839;DHT22;6486;51.034;5.262;2023-04-24T10:02:58;12.40;80.90
12839;DHT22;6486;51.034;5.262;2023-04-24T10:08:02;12.40;80.20
12839;DHT22;6486;51.034;5.262;2023-04-24T10:10:29;12.40;80.00
12839;DHT22;6486;51.034;5.262;2023-04-24T10:12:55;12.20;79.80
12839;DHT22;6486;51.034;5.262;2023-04-24T10:15:21;12.10;79.60
12839;DHT22;6486;51.034;5.262;2023-04-24T10:17:48;11.90;79.50
12839;DHT22;6486;51.034;5.262;2023-04-24T10:20:21;11.80;79.70
12839;DHT22;6486;51.034;5.262;2023-04-24T10:22:48;11.70;79.80
12839;DHT22;6486;51.034;5.262;2023-04-24T10:25:20;11.60;79.80
12839;DHT22;6486;51.034;5.262;2023-04-24T10:27:47;11.60;79.80
12839;DHT22;6486;51.034;5.262;2023-04-24T10:30:13;11.60;79.40
12839;DHT22;6486;51.034;5.262;2023-04-24T10:32:39;11.60;79.30
12839;DHT22;6486;51.034;5.262;2023-04-24T10:35:12;11.60;79.30
12839;DHT22;6486;51.034;5.262;2023-04-24T10:37:48;11.80;79.50
12839;DHT22;6486;51.034;5.262;2023-04-24T10:40:32;11.90;79.30
12839;DHT22;6486;51.034;5.262;2023-04-24T10:42:58;11.90;79.20
12839;DHT22;6486;51.034;5.262;2023-04-24T10:45:24;12.00;78.80
12839;DHT22;6486;51.034;5.262;2023-04-24T10:47:57;12.00;78.20
12839;DHT22;6486;51.034;5.262;2023-04-24T10:50:25;12.00;77.90
12839;DHT22;6486;51.034;5.262;2023-04-24T10:52:51;12.00;77.70
12839;DHT22;6486;51.034;5.262;2023-04-24T10:55:50;12.10;77.60
12839;DHT22;6486;51.034;5.262;2023-04-24T10:58:23;12.10;77.30
12839;DHT22;6486;51.034;5.262;2023-04-24T11:00:57;12.10;77.00
12839;DHT22;6486;51.034;5.262;2023-04-24T11:03:24;12.20;76.80
12839;DHT22;6486;51.034;5.262;2023-04-24T11:08:29;12.30;76.60
12839;DHT22;6486;51.034;5.262;2023-04-24T11:13:22;12.30;76.30
12839;DHT22;6486;51.034;5.262;2023-04-24T11:16:15;12.40;76.30
12839;DHT22;6486;51.034;5.262;2023-04-24T11:18:45;12.50;76.20
12839;DHT22;6486;51.034;5.262;2023-04-24T11:21:17;12.70;75.40
12839;DHT22;6486;51.034;5.262;2023-04-24T11:23:44;12.80;75.10
12839;DHT22;6486;51.034;5.262;2023-04-24T11:26:11;13.00;75.10
12839;DHT22;6486;51.034;5.262;2023-04-24T11:28:44;13.20;75.10
12839;DHT22;6486;51.034;5.262;2023-04-24T11:31:36;13.50;74.00
12839;DHT22;6486;51.034;5.262;2023-04-24T11:34:10;13.60;72.50
12839;DHT22;6486;51.034;5.262;2023-04-24T11:36:36;13.70;71.50
12839;DHT22;6486;51.034;5.262;2023-04-24T11:39:02;13.70;70.60
12839;DHT22;6486;51.034;5.262;2023-04-24T11:41:29;13.70;70.20
12839;DHT22;6486;51.034;5.262;2023-04-24T11:43:55;13.70;70.00
12839;DHT22;6486;51.034;5.262;2023-04-24T11:46:22;13.80;70.10
12839;DHT22;6486;51.034;5.262;2023-04-24T11:48:47;13.90;69.60
12839;DHT22;6486;51.034;5.262;2023-04-24T11:51:14;14.10;68.80
12839;DHT22;6486;51.034;5.262;2023-04-24T11:53:39;14.30;68.60
12839;DHT22;6486;51.034;5.262;2023-04-24T11:56:06;14.30;68.40
12839;DHT22;6486;51.034;5.262;2023-04-24T11:58:35;14.30;67.70
12839;DHT22;6486;51.034;5.262;2023-04-24T12:01:01;14.20;65.70
12839;DHT22;6486;51.034;5.262;2023-04-24T12:03:27;14.00;64.70
12839;DHT22;6486;51.034;5.262;2023-04-24T12:05:53;13.90;64.80
12839;DHT22;6486;51.034;5.262;2023-04-24T12:08:29;13.80;64.40
12839;DHT22;6486;51.034;5.262;2023-04-24T12:10:55;13.80;64.50
12839;DHT22;6486;51.034;5.262;2023-04-24T12:13:21;13.80;64.70
12839;DHT22;6486;51.034;5.262;2023-04-24T12:15:47;13.80;65.00
12839;DHT22;6486;51.034;5.262;2023-04-24T12:18:13;13.80;64.70
12839;DHT22;6486;51.034;5.262;2023-04-24T12:20:40;13.70;64.10
12839;DHT22;6486;51.034;5.262;2023-04-24T12:23:06;13.60;64.00
12839;DHT22;6486;51.034;5.262;2023-04-24T12:25:32;13.60;64.10
12839;DHT22;6486;51.034;5.262;2023-04-24T12:30:30;13.80;62.60
12839;DHT22;6486;51.034;5.262;2023-04-24T12:32:58;14.00;62.70
12839;DHT22;6486;51.034;5.262;2023-04-24T12:35:30;14.10;62.80
12839;DHT22;6486;51.034;5.262;2023-04-24T12:38:08;14.10;63.20
12839;DHT22;6486;51.034;5.262;2023-04-24T12:40:34;14.00;62.70
12839;DHT22;6486;51.034;5.262;2023-04-24T12:43:00;13.90;62.20
12839;DHT22;6486;51.034;5.262;2023-04-24T12:45:25;13.80;61.70
12839;DHT22;6486;51.034;5.262;2023-04-24T12:47:53;13.70;61.20
12839;DHT22;6486;51.034;5.262;2023-04-24T12:50:19;13.60;61.40
12839;DHT22;6486;51.034;5.262;2023-04-24T12:52:44;13.60;62.20
12839;DHT22;6486;51.034;5.262;2023-04-24T12:55:10;13.60;62.10
12839;DHT22;6486;51.034;5.262;2023-04-24T12:57:38;13.60;62.20
12839;DHT22;6486;51.034;5.262;2023-04-24T13:00:07;13.60;62.30
12839;DHT22;6486;51.034;5.262;2023-04-24T13:02:33;13.60;62.80
12839;DHT22;6486;51.034;5.262;2023-04-24T13:04:59;13.60;62.80
12839;DHT22;6486;51.034;5.262;2023-04-24T13:07:25;13.60;62.10
12839;DHT22;6486;51.034;5.262;2023-04-24T13:09:51;13.60;61.30
12839;DHT22;6486;51.034;5.262;2023-04-24T13:12:18;13.60;61.20
12839;DHT22;6486;51.034;5.262;2023-04-24T13:14:43;13.70;60.10
12839;DHT22;6486;51.034;5.262;2023-04-24T13:17:09;13.90;60.20
12839;DHT22;6486;51.034;5.262;2023-04-24T13:19:38;14.10;59.70
12839;DHT22;6486;51.034;5.262;2023-04-24T13:22:04;14.10;59.60
12839;DHT22;6486;51.034;5.262;2023-04-24T13:24:30;14.10;59.60
12839;DHT22;6486;51.034;5.262;2023-04-24T13:26:56;14.30;59.10
12839;DHT22;6486;51.034;5.262;2023-04-24T13:29:22;14.70;59.50
12839;DHT22;6486;51.034;5.262;2023-04-24T13:31:50;14.70;58.90
12839;DHT22;6486;51.034;5.262;2023-04-24T13:34:19;14.70;58.90
12839;DHT22;6486;51.034;5.262;2023-04-24T13:36:45;14.50;58.60
12839;DHT22;6486;51.034;5.262;2023-04-24T13:39:11;14.40;57.90
12839;DHT22;6486;51.034;5.262;2023-04-24T13:41:37;14.30;57.90
12839;DHT22;6486;51.034;5.262;2023-04-24T13:44:04;14.20;57.70
12839;DHT22;6486;51.034;5.262;2023-04-24T13:46:30;14.30;57.70
12839;DHT22;6486;51.034;5.262;2023-04-24T13:48:56;14.50;58.00
12839;DHT22;6486;51.034;5.262;2023-04-24T13:51:23;14.80;57.90
12839;DHT22;6486;51.034;5.262;2023-04-24T13:53:48;15.20;57.30
12839;DHT22;6486;51.034;5.262;2023-04-24T13:56:14;15.40;57.00
12839;DHT22;6486;51.034;5.262;2023-04-24T13:58:40;15.60;57.00
12839;DHT22;6486;51.034;5.262;2023-04-24T14:01:06;15.80;56.40
12839;DHT22;6486;51.034;5.262;2023-04-24T14:03:33;16.00;56.50
12839;DHT22;6486;51.034;5.262;2023-04-24T14:05:59;16.00;56.50
12839;DHT22;6486;51.034;5.262;2023-04-24T14:08:24;16.20;56.60
12839;DHT22;6486;51.034;5.262;2023-04-24T14:10:50;16.40;56.80
12839;DHT22;6486;51.034;5.262;2023-04-24T14:13:16;16.60;56.50
12839;DHT22;6486;51.034;5.262;2023-04-24T14:15:42;16.60;57.00
12839;DHT22;6486;51.034;5.262;2023-04-24T14:18:08;16.70;55.90
12839;DHT22;6486;51.034;5.262;2023-04-24T14:20:33;16.70;55.50
12839;DHT22;6486;51.034;5.262;2023-04-24T14:22:59;16.80;55.10
12839;DHT22;6486;51.034;5.262;2023-04-24T14:25:25;16.70;54.40
12839;DHT22;6486;51.034;5.262;2023-04-24T14:27:51;16.80;54.20
12839;DHT22;6486;51.034;5.262;2023-04-24T14:30:17;16.90;53.50
12839;DHT22;6486;51.034;5.262;2023-04-24T14:32:43;17.10;53.50
12839;DHT22;6486;51.034;5.262;2023-04-24T14:35:09;17.30;53.90
12839;DHT22;6486;51.034;5.262;2023-04-24T14:37:34;17.60;53.30
12839;DHT22;6486;51.034;5.262;2023-04-24T14:40:01;17.80;52.40
12839;DHT22;6486;51.034;5.262;2023-04-24T14:42:27;17.80;50.70
12839;DHT22;6486;51.034;5.262;2023-04-24T14:44:54;17.60;50.70
12839;DHT22;6486;51.034;5.262;2023-04-24T14:47:20;17.30;50.90
12839;DHT22;6486;51.034;5.262;2023-04-24T14:49:49;17.00;51.00
12839;DHT22;6486;51.034;5.262;2023-04-24T14:52:14;17.00;51.30
12839;DHT22;6486;51.034;5.262;2023-04-24T14:54:41;17.20;51.70
12839;DHT22;6486;51.034;5.262;2023-04-24T14:57:07;17.20;51.20
12839;DHT22;6486;51.034;5.262;2023-04-24T14:59:33;17.10;50.50
12839;DHT22;6486;51.034;5.262;2023-04-24T15:01:59;16.90;50.20
12839;DHT22;6486;51.034;5.262;2023-04-24T15:04:25;16.80;50.30
12839;DHT22;6486;51.034;5.262;2023-04-24T15:06:51;16.70;49.90
12839;DHT22;6486;51.034;5.262;2023-04-24T15:09:18;16.40;49.50
12839;DHT22;6486;51.034;5.262;2023-04-24T15:11:43;16.20;50.00
12839;DHT22;6486;51.034;5.262;2023-04-24T15:14:09;16.20;50.20
12839;DHT22;6486;51.034;5.262;2023-04-24T15:16:35;16.40;50.40
12839;DHT22;6486;51.034;5.262;2023-04-24T15:19:00;16.70;50.00
12839;DHT22;6486;51.034;5.262;2023-04-24T15:21:27;16.80;49.50
12839;DHT22;6486;51.034;5.262;2023-04-24T15:23:52;16.70;48.90
12839;DHT22;6486;51.034;5.262;2023-04-24T15:26:18;16.50;49.30
12839;DHT22;6486;51.034;5.262;2023-04-24T15:28:44;16.30;49.60
12839;DHT22;6486;51.034;5.262;2023-04-24T15:31:12;16.20;49.50
12839;DHT22;6486;51.034;5.262;2023-04-24T15:33:38;16.20;50.20
12839;DHT22;6486;51.034;5.262;2023-04-24T15:36:04;16.20;50.10
12839;DHT22;6486;51.034;5.262;2023-04-24T15:38:30;16.10;50.20
12839;DHT22;6486;51.034;5.262;2023-04-24T15:40:55;16.00;50.30
12839;DHT22;6486;51.034;5.262;2023-04-24T15:43:21;15.90;50.00
12839;DHT22;6486;51.034;5.262;2023-04-24T15:45:49;15.70;50.20
12839;DHT22;6486;51.034;5.262;2023-04-24T15:48:15;15.70;50.60
12839;DHT22;6486;51.034;5.262;2023-04-24T15:50:41;15.70;51.10
12839;DHT22;6486;51.034;5.262;2023-04-24T15:53:06;15.60;50.70